createdAt,value
2023-02-11T00:00:45.253Z,90.68
2023-02-11T00:01:34.898Z,91.05
2023-02-11T00:03:03.761Z,91.33
2023-02-11T00:03:51.135Z,92.31
2023-02-11T00:04:38.189Z,92.30
2023-02-11T00:05:37.541Z,92.50
2023-02-11T00:06:25.626Z,92.31
2023-02-11T00:07:12.740Z,92.55
2023-02-11T00:07:59.652Z,92.52
2023-02-11T00:08:46.841Z,92.77
2023-02-11T00:09:33.893Z,93.16
2023-02-11T00:10:20.976Z,93.33
2023-02-11T00:11:08.401Z,93.71
2023-02-11T00:11:55.501Z,94.08
2023-02-11T00:12:43.480Z,93.90
2023-02-11T00:13:30.838Z,93.70
2023-02-11T00:14:17.956Z,93.41
2023-02-11T00:15:07.031Z,93.26
2023-02-11T00:15:55.256Z,93.34
2023-02-11T00:16:42.365Z,93.21
2023-02-11T00:17:29.662Z,93.49
2023-02-11T00:18:25.080Z,93.47
2023-02-11T00:19:18.495Z,93.30
2023-02-11T00:20:08.393Z,93.39
2023-02-11T00:20:55.666Z,93.57
2023-02-11T00:21:43.681Z,93.27
2023-02-11T00:22:31.518Z,93.34
2023-02-11T00:23:27.250Z,93.38
2023-02-11T00:24:14.617Z,93.31
2023-02-11T00:25:02.627Z,93.28
2023-02-11T00:25:50.008Z,93.13
2023-02-11T00:26:38.064Z,92.77
2023-02-11T00:27:26.039Z,92.48
2023-02-11T00:28:14.502Z,91.80
2023-02-11T00:29:02.617Z,91.87
2023-02-11T00:29:49.869Z,91.66
2023-02-11T00:30:37.522Z,91.85
2023-02-11T00:31:25.958Z,92.48
2023-02-11T00:32:13.002Z,92.86
2023-02-11T00:33:00.114Z,92.89
2023-02-11T00:33:47.400Z,92.58
2023-02-11T00:34:35.675Z,92.71
2023-02-11T00:35:22.617Z,92.35
2023-02-11T00:36:15.844Z,92.26
2023-02-11T00:37:03.193Z,92.01
2023-02-11T00:37:50.151Z,91.53
2023-02-11T00:38:37.342Z,91.05
2023-02-11T00:39:24.619Z,91.41
2023-02-11T00:40:12.025Z,91.68
2023-02-11T00:40:59.285Z,91.93
2023-02-11T00:41:46.340Z,91.90
2023-02-11T00:42:33.394Z,92.29
2023-02-11T00:43:20.545Z,92.61
2023-02-11T00:44:07.646Z,92.72
2023-02-11T00:44:54.644Z,93.22
2023-02-11T00:45:41.672Z,93.17
2023-02-11T00:46:29.143Z,92.97
2023-02-11T00:47:16.185Z,92.66
2023-02-11T00:48:03.216Z,92.44
2023-02-11T00:48:51.965Z,92.37
2023-02-11T00:49:40.581Z,92.54
2023-02-11T00:50:27.605Z,92.72
2023-02-11T00:51:14.840Z,92.57
2023-02-11T00:52:01.831Z,92.51
2023-02-11T00:52:49.079Z,92.25
2023-02-11T00:53:36.344Z,92.27
2023-02-11T00:54:23.498Z,92.46
2023-02-11T00:55:10.533Z,92.60
2023-02-11T00:55:57.867Z,92.67
2023-02-11T00:56:44.878Z,92.90
2023-02-11T00:57:31.870Z,92.86
2023-02-11T00:58:19.142Z,93.04
2023-02-11T00:59:06.152Z,93.16
2023-02-11T00:59:53.135Z,93.08
2023-02-11T01:00:40.154Z,93.00
2023-02-11T01:01:27.817Z,92.82
2023-02-11T01:02:14.950Z,92.76
2023-02-11T01:03:02.035Z,92.64
2023-02-11T01:03:49.139Z,92.61
2023-02-11T01:04:36.265Z,92.51
2023-02-11T01:05:23.749Z,92.15
2023-02-11T01:06:10.681Z,91.71
2023-02-11T01:06:57.619Z,91.92
2023-02-11T01:07:44.903Z,92.00
2023-02-11T01:08:32.270Z,92.54
2023-02-11T01:09:21.399Z,92.36
2023-02-11T01:10:08.467Z,92.17
2023-02-11T01:10:56.632Z,92.04
2023-02-11T01:11:43.753Z,92.40
2023-02-11T01:12:30.872Z,91.92
2023-02-11T01:13:17.787Z,91.58
2023-02-11T01:14:04.962Z,91.34
2023-02-11T01:14:51.891Z,91.32
2023-02-11T01:15:39.012Z,91.80
2023-02-11T01:16:26.086Z,91.67
2023-02-11T01:17:13.110Z,92.01
2023-02-11T01:18:00.212Z,92.10
2023-02-11T01:18:47.448Z,92.51
2023-02-11T01:19:34.581Z,93.27
2023-02-11T01:20:25.733Z,93.64
2023-02-11T01:21:12.743Z,93.77
2023-02-11T01:22:00.093Z,93.49
2023-02-11T01:22:47.047Z,93.12
2023-02-11T01:23:33.969Z,92.94
2023-02-11T01:24:20.933Z,92.78
2023-02-11T01:25:08.420Z,92.53
2023-02-11T01:25:55.389Z,92.43
2023-02-11T01:26:42.324Z,92.37
2023-02-11T01:27:29.229Z,92.43
2023-02-11T01:28:21.607Z,92.39
2023-02-11T01:29:09.605Z,92.82
2023-02-11T01:29:56.669Z,92.82
2023-02-11T01:30:43.821Z,92.89
2023-02-11T01:31:33.218Z,93.03
2023-02-11T01:32:20.559Z,93.07
2023-02-11T01:33:07.565Z,93.22
2023-02-11T01:33:54.596Z,93.01
2023-02-11T01:34:41.571Z,92.26
2023-02-11T01:35:28.534Z,92.35
2023-02-11T01:36:15.629Z,92.14
2023-02-11T01:37:02.591Z,92.17
2023-02-11T01:37:49.543Z,92.03
2023-02-11T01:38:36.972Z,92.03
2023-02-11T01:39:23.994Z,92.26
2023-02-11T01:40:16.716Z,92.18
2023-02-11T01:41:07.127Z,91.83
2023-02-11T01:41:54.781Z,91.70
2023-02-11T01:42:41.854Z,91.33
2023-02-11T01:43:33.443Z,91.52
2023-02-11T01:44:28.759Z,91.97
2023-02-11T01:45:47.341Z,91.82
2023-02-11T01:46:38.737Z,92.02
2023-02-11T01:47:25.783Z,91.76
2023-02-11T01:48:16.291Z,91.64
2023-02-11T01:49:28.422Z,91.74
2023-02-11T01:50:15.502Z,91.77
2023-02-11T01:51:11.472Z,92.02
2023-02-11T01:52:09.869Z,92.60
2023-02-11T01:53:16.837Z,92.87
2023-02-11T01:54:24.433Z,93.14
2023-02-11T01:55:32.088Z,93.23
2023-02-11T01:56:38.347Z,93.60
2023-02-11T01:57:29.630Z,93.50
2023-02-11T01:58:16.836Z,93.12
2023-02-11T01:59:09.389Z,92.95
2023-02-11T02:00:11.197Z,93.24
2023-02-11T02:00:59.199Z,94.12
2023-02-11T02:01:50.133Z,94.52
2023-02-11T02:02:59.094Z,94.71
2023-02-11T02:03:47.368Z,94.38
2023-02-11T02:04:41.663Z,94.02
2023-02-11T02:05:35.148Z,94.16
2023-02-11T02:06:36.504Z,94.35
2023-02-11T02:07:41.674Z,94.22
2023-02-11T02:08:35.423Z,94.27
2023-02-11T02:09:28.352Z,94.75
2023-02-11T02:10:19.771Z,94.62
2023-02-11T02:11:07.171Z,94.24
2023-02-11T02:11:54.340Z,94.21
2023-02-11T02:12:41.339Z,94.44
2023-02-11T02:13:31.102Z,94.19
2023-02-11T02:14:18.599Z,94.61
2023-02-11T02:15:29.080Z,94.54
2023-02-11T02:16:18.937Z,94.53
2023-02-11T02:17:06.034Z,94.15
2023-02-11T02:18:00.470Z,94.13
2023-02-11T02:19:05.922Z,94.23
2023-02-11T02:20:17.629Z,94.77
2023-02-11T02:21:31.228Z,94.62
2023-02-11T02:22:41.607Z,94.72
2023-02-11T02:23:36.275Z,94.97
2023-02-11T02:24:48.780Z,94.78
2023-02-11T02:25:38.373Z,95.12
2023-02-11T02:26:47.411Z,95.04
2023-02-11T02:27:49.332Z,94.98
2023-02-11T02:28:38.984Z,95.02
2023-02-11T02:30:01.367Z,95.13
2023-02-11T02:31:02.468Z,95.41
2023-02-11T02:32:16.748Z,95.32
2023-02-11T02:33:25.821Z,94.76
2023-02-11T02:34:37.620Z,94.95
2023-02-11T02:36:09.224Z,94.85
2023-02-11T02:37:01.780Z,96.17
2023-02-11T02:38:12.848Z,97.01
2023-02-11T02:39:04.442Z,96.52
2023-02-11T02:39:51.542Z,96.27
2023-02-11T02:40:55.155Z,95.82
2023-02-11T02:41:42.742Z,95.46
2023-02-11T02:42:29.837Z,95.45
2023-02-11T02:43:17.484Z,95.18
2023-02-11T02:44:04.562Z,94.89
2023-02-11T02:44:52.700Z,95.18
2023-02-11T02:45:39.819Z,95.53
2023-02-11T02:46:31.104Z,96.22
2023-02-11T02:47:18.282Z,95.95
2023-02-11T02:48:05.378Z,95.50
2023-02-11T02:48:53.457Z,94.87
2023-02-11T02:49:40.459Z,94.56
2023-02-11T02:50:31.756Z,94.49
2023-02-11T02:51:52.218Z,94.39
2023-02-11T02:53:03.915Z,94.34
2023-02-11T02:53:53.993Z,94.73
2023-02-11T02:55:12.795Z,94.96
2023-02-11T02:56:06.383Z,95.13
2023-02-11T02:57:08.430Z,94.80
2023-02-11T02:58:13.950Z,95.32
2023-02-11T02:59:20.962Z,95.70
2023-02-11T03:00:38.443Z,95.61
2023-02-11T03:01:36.426Z,95.90
2023-02-11T03:02:34.862Z,95.86
2023-02-11T03:03:43.523Z,96.07
2023-02-11T03:04:38.606Z,96.15
2023-02-11T03:05:41.077Z,96.01
2023-02-11T03:07:12.709Z,95.69
2023-02-11T03:08:05.819Z,95.05
2023-02-11T03:09:14.888Z,94.67
2023-02-11T03:10:21.557Z,94.32
2023-02-11T03:11:10.853Z,94.22
2023-02-11T03:11:58.357Z,94.13
2023-02-11T03:12:46.906Z,94.15
2023-02-11T03:13:36.913Z,94.38
2023-02-11T03:14:30.495Z,94.40
2023-02-11T03:15:18.786Z,94.27
2023-02-11T03:16:21.190Z,94.00
2023-02-11T03:17:09.442Z,94.24
2023-02-11T03:17:59.264Z,94.44
2023-02-11T03:18:51.210Z,94.87
2023-02-11T03:19:40.739Z,95.72
2023-02-11T03:20:28.434Z,95.08
2023-02-11T03:21:17.620Z,94.87
2023-02-11T03:22:08.522Z,94.99
2023-02-11T03:22:59.202Z,94.54
2023-02-11T03:23:49.169Z,94.13
2023-02-11T03:24:39.017Z,94.09
2023-02-11T03:25:36.724Z,94.92
2023-02-11T03:26:41.360Z,95.07
2023-02-11T03:27:34.662Z,95.31
2023-02-11T03:28:29.138Z,95.74
2023-02-11T03:29:33.249Z,95.30
2023-02-11T03:30:27.287Z,95.05
2023-02-11T03:31:31.665Z,95.62
2023-02-11T03:32:29.118Z,95.89
2023-02-11T03:33:26.691Z,95.41
2023-02-11T03:34:18.210Z,95.38
2023-02-11T03:35:11.026Z,95.58
2023-02-11T03:36:01.803Z,95.67
2023-02-11T03:36:56.190Z,95.64
2023-02-11T03:37:50.232Z,95.38
2023-02-11T03:38:40.207Z,95.62
2023-02-11T03:39:37.649Z,95.83
2023-02-11T03:40:30.034Z,95.69
2023-02-11T03:41:18.556Z,95.44
2023-02-11T03:42:09.961Z,95.94
2023-02-11T03:43:17.358Z,96.63
2023-02-11T03:44:04.911Z,97.70
2023-02-11T03:44:56.300Z,97.51
2023-02-11T03:45:44.267Z,97.23
2023-02-11T03:46:34.193Z,97.13
2023-02-11T03:47:24.042Z,96.89
2023-02-11T03:48:27.933Z,96.92
2023-02-11T03:49:16.114Z,96.80
2023-02-11T03:50:05.829Z,96.07
2023-02-11T03:50:54.427Z,96.12
2023-02-11T03:51:41.518Z,96.65
2023-02-11T03:52:28.730Z,96.95
2023-02-11T03:53:16.507Z,97.35
2023-02-11T03:54:07.471Z,97.29
2023-02-11T03:54:57.592Z,96.98
2023-02-11T03:55:46.246Z,96.95
2023-02-11T03:56:37.067Z,97.33
2023-02-11T03:57:24.240Z,97.46
2023-02-11T03:58:11.661Z,97.64
2023-02-11T03:58:58.671Z,97.85
2023-02-11T03:59:59.137Z,97.83
2023-02-11T04:00:46.483Z,97.21
2023-02-11T04:01:33.499Z,97.08
2023-02-11T04:02:21.786Z,97.09
2023-02-11T04:03:09.963Z,97.07
2023-02-11T04:03:56.934Z,96.87
2023-02-11T04:04:44.003Z,97.00
2023-02-11T04:05:31.103Z,97.27
2023-02-11T04:06:18.214Z,96.90
2023-02-11T04:07:05.189Z,97.36
2023-02-11T04:07:52.140Z,98.31
2023-02-11T04:08:39.223Z,98.23
2023-02-11T04:09:26.190Z,98.33
2023-02-11T04:10:13.410Z,98.22
2023-02-11T04:11:00.500Z,98.04
2023-02-11T04:11:47.449Z,97.84
2023-02-11T04:12:35.354Z,98.38
2023-02-11T04:13:22.875Z,98.32
2023-02-11T04:14:09.868Z,98.03
2023-02-11T04:14:56.744Z,97.54
2023-02-11T04:15:43.868Z,97.10
2023-02-11T04:16:31.274Z,96.70
2023-02-11T04:17:18.754Z,97.55
2023-02-11T04:18:05.868Z,97.54
2023-02-11T04:18:52.931Z,97.17
2023-02-11T04:19:40.450Z,97.02
2023-02-11T04:20:27.682Z,97.21
2023-02-11T04:21:14.701Z,97.03
2023-02-11T04:22:02.158Z,96.45
2023-02-11T04:22:52.108Z,96.43
2023-02-11T04:23:39.099Z,97.16
2023-02-11T04:24:26.219Z,96.98
2023-02-11T04:25:13.236Z,97.13
2023-02-11T04:26:00.197Z,97.13
2023-02-11T04:26:47.235Z,97.51
2023-02-11T04:27:34.238Z,98.01
2023-02-11T04:28:21.404Z,98.18
2023-02-11T04:29:08.487Z,98.55
2023-02-11T04:29:55.441Z,98.29
2023-02-11T04:30:42.484Z,98.00
2023-02-11T04:31:29.422Z,97.61
2023-02-11T04:32:17.024Z,97.49
2023-02-11T04:33:04.131Z,97.95
2023-02-11T04:33:51.078Z,97.74
2023-02-11T04:34:38.198Z,97.77
2023-02-11T04:35:25.362Z,98.29
2023-02-11T04:36:13.184Z,98.29
2023-02-11T04:37:00.165Z,98.34
2023-02-11T04:37:47.384Z,98.50
2023-02-11T04:38:34.273Z,98.55
2023-02-11T04:39:21.280Z,98.84
2023-02-11T04:40:08.800Z,99.06
2023-02-11T04:40:55.740Z,99.29
2023-02-11T04:41:42.689Z,99.46
2023-02-11T04:42:30.042Z,99.02
2023-02-11T04:43:17.049Z,98.59
2023-02-11T04:44:04.785Z,98.68
2023-02-11T04:44:52.276Z,98.87
2023-02-11T04:45:42.043Z,98.81
2023-02-11T04:46:29.364Z,99.07
2023-02-11T04:47:16.735Z,99.49
2023-02-11T04:48:04.604Z,99.38
2023-02-11T04:48:51.829Z,99.16
2023-02-11T04:49:38.873Z,99.12
2023-02-11T04:50:25.915Z,98.77
2023-02-11T04:51:12.956Z,98.90
2023-02-11T04:51:59.995Z,98.99
2023-02-11T04:52:47.078Z,98.28
2023-02-11T04:53:34.012Z,97.83
2023-02-11T04:54:22.269Z,97.54
2023-02-11T04:55:09.394Z,97.52
2023-02-11T04:55:56.395Z,97.51
2023-02-11T04:56:43.305Z,97.73
2023-02-11T04:57:30.462Z,98.08
2023-02-11T04:58:20.160Z,98.13
2023-02-11T04:59:07.600Z,97.95
2023-02-11T04:59:54.840Z,97.64
2023-02-11T05:00:41.900Z,97.55
2023-02-11T05:01:28.985Z,97.54
2023-02-11T05:02:16.074Z,97.70
2023-02-11T05:03:06.170Z,97.36
2023-02-11T05:03:53.361Z,96.85
2023-02-11T05:04:40.510Z,96.39
2023-02-11T05:05:27.553Z,96.95
2023-02-11T05:06:14.614Z,97.18
2023-02-11T05:07:01.833Z,97.08
2023-02-11T05:07:49.148Z,96.66
2023-02-11T05:08:36.280Z,96.89
2023-02-11T05:09:23.315Z,96.96
2023-02-11T05:10:10.330Z,97.51
2023-02-11T05:10:57.562Z,97.49
2023-02-11T05:11:44.594Z,97.49
2023-02-11T05:12:31.650Z,97.85
2023-02-11T05:13:18.876Z,97.99
2023-02-11T05:14:07.127Z,97.97
2023-02-11T05:14:54.530Z,97.45
2023-02-11T05:15:41.501Z,96.90
2023-02-11T05:16:31.253Z,96.68
2023-02-11T05:17:19.038Z,96.89
2023-02-11T05:18:06.206Z,97.59
2023-02-11T05:18:55.879Z,98.02
2023-02-11T05:19:43.154Z,98.30
2023-02-11T05:20:30.082Z,98.61
2023-02-11T05:21:20.812Z,98.45
2023-02-11T05:22:14.453Z,98.63
2023-02-11T05:23:11.147Z,98.83
2023-02-11T05:23:58.321Z,99.09
2023-02-11T05:24:45.287Z,100.00
2023-02-11T05:25:32.353Z,99.85
2023-02-11T05:26:19.290Z,98.99
2023-02-11T05:27:06.475Z,98.25
2023-02-11T05:27:53.674Z,98.35
2023-02-11T05:28:41.084Z,98.68
2023-02-11T05:29:28.528Z,98.29
2023-02-11T05:30:15.867Z,97.94
2023-02-11T05:31:03.146Z,97.63
2023-02-11T05:31:50.716Z,97.48
2023-02-11T05:32:38.110Z,97.36
2023-02-11T05:33:25.478Z,97.74
2023-02-11T05:34:15.461Z,98.09
2023-02-11T05:35:02.485Z,98.57
2023-02-11T05:35:50.982Z,99.01
2023-02-11T05:36:38.753Z,98.68
2023-02-11T05:37:26.075Z,98.24
2023-02-11T05:38:13.344Z,98.29
2023-02-11T05:39:00.369Z,98.47
2023-02-11T05:39:47.434Z,98.02
2023-02-11T05:40:36.548Z,97.95
2023-02-11T05:41:23.873Z,97.58
2023-02-11T05:42:10.852Z,96.99
2023-02-11T05:42:57.987Z,97.33
2023-02-11T05:43:44.879Z,97.34
2023-02-11T05:44:31.995Z,97.08
2023-02-11T05:45:19.102Z,96.83
2023-02-11T05:46:06.541Z,96.78
2023-02-11T05:46:53.611Z,97.00
2023-02-11T05:47:46.809Z,97.01
2023-02-11T05:48:33.783Z,97.35
2023-02-11T05:49:20.714Z,97.97
2023-02-11T05:50:07.923Z,97.64
2023-02-11T05:50:54.789Z,97.20
2023-02-11T05:51:41.847Z,97.08
2023-02-11T05:52:28.828Z,96.78
2023-02-11T05:53:16.393Z,96.60
2023-02-11T05:54:03.979Z,96.82
2023-02-11T05:54:51.191Z,97.40
2023-02-11T05:55:38.393Z,97.65
2023-02-11T05:56:25.513Z,98.17
2023-02-11T05:57:12.548Z,98.01
2023-02-11T05:57:59.589Z,97.88
2023-02-11T05:58:46.611Z,97.52
2023-02-11T05:59:33.593Z,97.59
2023-02-11T06:00:20.794Z,97.22
2023-02-11T06:01:10.245Z,96.53
2023-02-11T06:01:57.285Z,96.04
2023-02-11T06:02:44.467Z,95.98
2023-02-11T06:03:31.576Z,96.04
2023-02-11T06:04:18.600Z,95.93
2023-02-11T06:05:05.941Z,95.94
2023-02-11T06:05:53.156Z,95.94
2023-02-11T06:06:40.288Z,96.22
2023-02-11T06:07:27.203Z,96.90
2023-02-11T06:08:14.313Z,97.37
2023-02-11T06:09:01.431Z,97.75
2023-02-11T06:09:48.467Z,97.25
2023-02-11T06:10:35.550Z,96.51
2023-02-11T06:11:22.805Z,96.33
2023-02-11T06:12:09.875Z,96.75
2023-02-11T06:12:57.058Z,96.68
2023-02-11T06:13:44.115Z,96.50
2023-02-11T06:14:34.140Z,96.31
2023-02-11T06:15:21.128Z,96.59
2023-02-11T06:16:08.207Z,96.86
2023-02-11T06:16:55.316Z,97.10
2023-02-11T06:17:42.317Z,97.06
2023-02-11T06:18:29.788Z,97.12
2023-02-11T06:19:16.787Z,96.95
2023-02-11T06:20:07.865Z,97.49
2023-02-11T06:20:54.910Z,97.95
2023-02-11T06:21:44.072Z,97.70
2023-02-11T06:22:31.482Z,97.35
2023-02-11T06:23:18.480Z,96.96
2023-02-11T06:24:06.120Z,96.79
2023-02-11T06:25:01.365Z,96.68
2023-02-11T06:25:49.286Z,96.56
2023-02-11T06:26:36.668Z,96.08
2023-02-11T06:27:23.680Z,95.53
2023-02-11T06:28:11.011Z,95.62
2023-02-11T06:29:00.727Z,95.48
2023-02-11T06:29:48.079Z,95.49
2023-02-11T06:30:36.277Z,95.32
2023-02-11T06:31:23.310Z,95.06
2023-02-11T06:32:28.150Z,94.63
2023-02-11T06:33:17.412Z,94.25
2023-02-11T06:34:05.267Z,94.32
2023-02-11T06:34:52.267Z,94.44
2023-02-11T06:35:39.999Z,94.18
2023-02-11T06:36:27.047Z,93.93
2023-02-11T06:37:14.079Z,93.34
2023-02-11T06:38:01.873Z,93.17
2023-02-11T06:38:49.339Z,92.18
2023-02-11T06:39:36.278Z,91.40
2023-02-11T06:40:23.373Z,90.69
2023-02-11T06:41:15.594Z,91.25
2023-02-11T06:42:02.773Z,91.39
2023-02-11T06:42:49.771Z,92.01
2023-02-11T06:43:36.793Z,91.53
2023-02-11T06:44:24.273Z,90.85
2023-02-11T06:45:13.243Z,89.60
2023-02-11T06:46:00.369Z,88.54
2023-02-11T06:46:47.517Z,87.49
2023-02-11T06:47:34.526Z,88.28
2023-02-11T06:48:21.710Z,89.00
2023-02-11T06:49:08.680Z,87.83
2023-02-11T06:49:55.840Z,87.67
2023-02-11T06:50:42.862Z,87.95
2023-02-11T06:51:29.915Z,87.11
2023-02-11T06:52:16.946Z,85.58
2023-02-11T06:53:04.453Z,84.89
2023-02-11T06:53:51.468Z,83.68
2023-02-11T06:54:38.520Z,85.69
2023-02-11T06:55:25.516Z,84.16
2023-02-11T06:56:16.534Z,83.25
2023-02-11T06:57:03.587Z,82.59
2023-02-11T06:57:50.936Z,81.87
2023-02-11T06:58:38.051Z,81.96
2023-02-11T06:59:25.233Z,81.67
2023-02-11T07:00:13.070Z,80.77
2023-02-11T07:01:00.351Z,79.49
2023-02-11T07:01:47.812Z,79.77
2023-02-11T07:02:34.954Z,79.54
2023-02-11T07:03:21.950Z,79.76
2023-02-11T07:04:09.070Z,80.19
2023-02-11T07:04:56.109Z,79.68
2023-02-11T07:05:44.092Z,78.82
2023-02-11T07:06:31.057Z,77.84
2023-02-11T07:07:18.029Z,77.82
2023-02-11T07:08:05.416Z,77.88
2023-02-11T07:08:52.692Z,77.05
2023-02-11T07:09:39.623Z,76.11
2023-02-11T07:10:26.672Z,76.01
2023-02-11T07:11:16.374Z,75.89
2023-02-11T07:12:03.464Z,74.91
2023-02-11T07:12:50.490Z,74.69
2023-02-11T07:13:37.714Z,75.10
2023-02-11T07:14:24.827Z,74.16
2023-02-11T07:15:11.709Z,73.84
2023-02-11T07:15:58.683Z,73.95
2023-02-11T07:16:45.723Z,73.85
2023-02-11T07:17:32.749Z,74.15
2023-02-11T07:18:19.727Z,74.63
2023-02-11T07:19:06.760Z,74.12
2023-02-11T07:19:53.970Z,73.92
2023-02-11T07:20:42.876Z,72.80
2023-02-11T07:21:29.913Z,72.43
2023-02-11T07:22:17.155Z,72.21
2023-02-11T07:23:04.190Z,72.16
2023-02-11T07:23:51.525Z,72.34
2023-02-11T07:24:38.373Z,72.36
2023-02-11T07:25:25.504Z,71.51
2023-02-11T07:26:14.533Z,72.51
2023-02-11T07:27:01.537Z,72.00
2023-02-11T07:27:48.604Z,72.89
2023-02-11T07:28:37.402Z,72.12
2023-02-11T07:29:24.870Z,72.10
2023-02-11T07:30:12.966Z,71.96
2023-02-11T07:31:00.168Z,71.95
2023-02-11T07:31:47.384Z,71.38
2023-02-11T07:32:37.360Z,71.12
2023-02-11T07:33:24.510Z,70.29
2023-02-11T07:34:11.594Z,70.26
2023-02-11T07:34:58.559Z,70.42
2023-02-11T07:35:45.679Z,69.80
2023-02-11T07:36:32.990Z,69.70
2023-02-11T07:37:20.466Z,69.64
2023-02-11T07:38:09.704Z,69.55
2023-02-11T07:38:57.149Z,69.57
2023-02-11T07:39:44.551Z,69.37
2023-02-11T07:40:32.128Z,68.60
2023-02-11T07:41:21.500Z,68.46
2023-02-11T07:42:08.949Z,68.45
2023-02-11T07:42:56.639Z,68.46
2023-02-11T07:43:44.341Z,68.21
2023-02-11T07:44:33.528Z,67.05
2023-02-11T07:46:46.495Z,66.87
2023-02-11T07:47:35.073Z,66.64
2023-02-11T07:48:22.130Z,66.59
2023-02-11T07:49:09.885Z,66.71
2023-02-11T07:49:58.232Z,66.80
2023-02-11T07:50:45.752Z,66.49
2023-02-11T07:51:32.837Z,67.50
2023-02-11T07:52:20.320Z,67.41
2023-02-11T07:53:07.320Z,67.15
2023-02-11T07:53:56.331Z,66.27
2023-02-11T07:54:43.424Z,66.10
2023-02-11T07:55:30.666Z,66.73
2023-02-11T07:56:18.781Z,66.75
2023-02-11T07:57:05.863Z,66.54
2023-02-11T07:57:52.888Z,66.12
2023-02-11T07:58:42.262Z,65.21
2023-02-11T07:59:29.567Z,65.02
2023-02-11T08:00:20.065Z,65.00
2023-02-11T08:01:11.058Z,65.64
2023-02-11T08:01:58.039Z,65.53
2023-02-11T08:02:45.029Z,65.36
2023-02-11T08:03:32.506Z,65.34
2023-02-11T08:04:19.630Z,65.17
2023-02-11T08:05:06.986Z,64.83
2023-02-11T08:05:54.005Z,64.91
2023-02-11T08:06:42.749Z,64.78
2023-02-11T08:07:29.993Z,65.54
2023-02-11T08:08:17.038Z,65.58
2023-02-11T08:09:07.581Z,65.12
2023-02-11T08:09:55.823Z,64.40
2023-02-11T08:10:43.788Z,64.48
2023-02-11T08:11:30.673Z,63.91
2023-02-11T08:12:17.671Z,63.41
2023-02-11T08:13:04.688Z,63.59
2023-02-11T08:13:52.266Z,63.45
2023-02-11T08:14:39.440Z,64.28
2023-02-11T08:15:26.509Z,64.26
2023-02-11T08:16:28.712Z,63.55
2023-02-11T08:17:15.863Z,63.55
2023-02-11T08:18:03.020Z,63.66
2023-02-11T08:18:50.582Z,63.54
2023-02-11T08:19:37.627Z,63.22
2023-02-11T08:20:24.876Z,63.06
2023-02-11T08:21:12.184Z,63.23
2023-02-11T08:22:01.182Z,63.66
2023-02-11T08:22:48.161Z,64.11
2023-02-11T08:23:39.224Z,64.03
2023-02-11T08:24:26.290Z,63.83
2023-02-11T08:25:13.464Z,63.46
2023-02-11T08:26:04.621Z,63.54
2023-02-11T08:26:51.622Z,63.60
2023-02-11T08:27:38.791Z,63.07
2023-02-11T08:28:25.878Z,63.46
2023-02-11T08:29:14.629Z,63.48
2023-02-11T08:30:02.103Z,63.34
2023-02-11T08:30:49.543Z,63.17
2023-02-11T08:31:39.289Z,62.68
2023-02-11T08:32:26.975Z,62.83
2023-02-11T08:33:13.958Z,62.79
2023-02-11T08:34:02.607Z,62.66
2023-02-11T08:34:53.383Z,62.33
2023-02-11T08:35:40.863Z,62.19
2023-02-11T08:36:32.425Z,62.06
2023-02-11T08:37:19.985Z,61.80
2023-02-11T08:38:07.030Z,61.82
2023-02-11T08:39:05.596Z,61.99
2023-02-11T08:39:59.296Z,61.72
2023-02-11T08:40:46.555Z,61.78
2023-02-11T08:41:34.689Z,61.22
2023-02-11T08:42:21.963Z,61.92
2023-02-11T08:43:08.996Z,62.48
2023-02-11T08:43:56.341Z,61.83
2023-02-11T08:44:44.159Z,60.38
2023-02-11T08:45:31.165Z,60.77
2023-02-11T08:46:19.718Z,60.46
2023-02-11T08:47:06.955Z,60.42
2023-02-11T08:47:54.592Z,60.02
2023-02-11T08:48:41.793Z,59.78
2023-02-11T08:49:30.505Z,60.09
2023-02-11T08:50:17.703Z,60.52
2023-02-11T08:51:15.437Z,60.71
2023-02-11T08:52:04.497Z,60.48
2023-02-11T08:52:53.186Z,61.09
2023-02-11T08:53:40.243Z,60.91
2023-02-11T08:54:27.190Z,60.29
2023-02-11T08:55:14.337Z,59.77
2023-02-11T08:56:01.276Z,59.77
2023-02-11T08:56:51.758Z,60.09
2023-02-11T08:57:38.882Z,59.52
2023-02-11T08:58:25.863Z,59.76
2023-02-11T08:59:18.142Z,60.00
2023-02-11T09:00:05.997Z,60.19
2023-02-11T09:00:53.492Z,59.65
2023-02-11T09:01:40.907Z,59.52
2023-02-11T09:02:28.234Z,59.82
2023-02-11T09:03:15.777Z,59.68
2023-02-11T09:04:02.935Z,59.54
2023-02-11T09:04:49.973Z,59.50
2023-02-11T09:05:44.794Z,59.44
2023-02-11T09:06:32.201Z,59.18
2023-02-11T09:07:19.296Z,59.39
2023-02-11T09:08:09.533Z,59.07
2023-02-11T09:08:57.736Z,59.95
2023-02-11T09:09:44.750Z,60.44
2023-02-11T09:10:31.667Z,60.44
2023-02-11T09:11:25.356Z,60.40
2023-02-11T09:12:12.320Z,60.48
2023-02-11T09:12:59.278Z,60.02
2023-02-11T09:13:46.908Z,59.80
2023-02-11T09:14:33.894Z,59.76
2023-02-11T09:15:20.853Z,60.48
2023-02-11T09:16:08.335Z,60.70
2023-02-11T09:16:55.353Z,60.32
2023-02-11T09:17:42.384Z,59.76
2023-02-11T09:18:29.559Z,59.40
2023-02-11T09:19:16.611Z,59.34
2023-02-11T09:20:04.156Z,59.88
2023-02-11T09:20:51.451Z,59.60
2023-02-11T09:21:38.584Z,59.83
2023-02-11T09:22:25.575Z,59.87
2023-02-11T09:23:12.985Z,59.28
2023-02-11T09:23:59.968Z,58.85
2023-02-11T09:24:46.957Z,58.83
2023-02-11T09:25:33.985Z,59.00
2023-02-11T09:26:28.219Z,58.94
2023-02-11T09:27:15.384Z,59.11
2023-02-11T09:28:02.360Z,59.08
2023-02-11T09:28:49.748Z,59.00
2023-02-11T09:29:36.992Z,59.30
2023-02-11T09:30:24.041Z,59.64
2023-02-11T09:31:13.992Z,59.52
2023-02-11T09:32:01.236Z,59.56
2023-02-11T09:32:48.479Z,58.56
2023-02-11T09:33:35.520Z,59.01
2023-02-11T09:34:22.530Z,59.22
2023-02-11T09:35:09.581Z,59.25
2023-02-11T09:35:56.586Z,58.73
2023-02-11T09:36:43.578Z,59.62
2023-02-11T09:37:30.505Z,59.74
2023-02-11T09:38:17.515Z,59.94
2023-02-11T09:39:06.258Z,59.86
2023-02-11T09:39:53.282Z,60.00
2023-02-11T09:40:44.912Z,59.80
2023-02-11T09:41:53.834Z,59.51
2023-02-11T09:43:09.296Z,58.86
2023-02-11T09:44:03.113Z,58.86
2023-02-11T09:44:50.384Z,58.62
2023-02-11T09:45:37.476Z,58.45
2023-02-11T09:46:25.479Z,59.50
2023-02-11T09:47:31.279Z,58.52
2023-02-11T09:48:21.350Z,58.08
2023-02-11T09:49:16.245Z,57.59
2023-02-11T09:50:13.471Z,57.90
2023-02-11T09:51:01.952Z,57.90
2023-02-11T09:52:12.085Z,57.03
2023-02-11T09:53:29.921Z,56.27
2023-02-11T09:54:27.869Z,55.66
2023-02-11T09:55:21.632Z,55.89
2023-02-11T09:56:14.174Z,55.92
2023-02-11T09:57:01.262Z,55.36
2023-02-11T09:57:48.516Z,55.42
2023-02-11T09:58:37.068Z,55.33
2023-02-11T09:59:24.096Z,55.54
2023-02-11T10:00:38.512Z,54.79
2023-02-11T10:01:43.700Z,53.17
2023-02-11T10:03:21.684Z,53.61
2023-02-11T10:04:31.545Z,53.30
2023-02-11T10:05:51.308Z,53.89
2023-02-11T10:06:48.588Z,52.43
2023-02-11T10:07:49.081Z,53.15
2023-02-11T10:09:09.280Z,52.57
2023-02-11T10:10:08.387Z,52.73
2023-02-11T10:11:06.284Z,52.08
2023-02-11T10:12:14.680Z,51.94
2023-02-11T10:13:26.057Z,52.97
2023-02-11T10:14:30.592Z,52.52
2023-02-11T10:15:35.975Z,52.80
2023-02-11T10:16:54.118Z,52.33
2023-02-11T10:18:06.224Z,52.53
2023-02-11T10:19:25.369Z,52.71
2023-02-11T10:20:36.249Z,52.57
2023-02-11T10:21:31.898Z,53.15
2023-02-11T10:22:23.228Z,52.87
2023-02-11T10:23:10.252Z,52.70
2023-02-11T10:24:01.553Z,52.84
2023-02-11T10:24:53.390Z,52.85
2023-02-11T10:25:45.471Z,52.67
2023-02-11T10:26:33.772Z,53.43
2023-02-11T10:27:25.223Z,53.18
2023-02-11T10:28:24.988Z,53.45
2023-02-11T10:29:21.847Z,53.16
2023-02-11T10:30:36.492Z,53.05
2023-02-11T10:31:27.553Z,53.20
2023-02-11T10:32:49.098Z,53.68
2023-02-11T10:33:57.026Z,53.96
2023-02-11T10:34:44.063Z,53.86
2023-02-11T10:35:32.109Z,54.17
2023-02-11T10:36:20.023Z,54.26
2023-02-11T10:37:07.465Z,53.84
2023-02-11T10:37:56.271Z,53.20
2023-02-11T10:38:43.637Z,53.68
2023-02-11T10:39:32.104Z,53.24
2023-02-11T10:40:21.895Z,53.12
2023-02-11T10:41:24.755Z,52.90
2023-02-11T10:42:13.528Z,52.73
2023-02-11T10:43:04.854Z,52.18
2023-02-11T10:43:52.380Z,52.05
2023-02-11T10:44:43.548Z,51.99
2023-02-11T10:45:34.370Z,53.13
2023-02-11T10:46:32.046Z,53.29
2023-02-11T10:47:24.622Z,53.53
2023-02-11T10:48:45.155Z,53.93
2023-02-11T10:49:43.804Z,53.45
2023-02-11T10:50:35.171Z,52.92
2023-02-11T10:51:23.183Z,53.08
2023-02-11T10:52:22.570Z,53.50